Time;durP1;ratioP1;P1;durP2;ratioP2;P2;SDS_P1;SDS_P2;PMS_P1;PMS_P2;Temp;Humidity;BMP_temperature;BMP_pressure;BME280_temperature;BME280_humidity;BME280_pressure;Samples;Min_cycle;Max_cycle;Signal;HPM_P1;HPM_P2
2022/05/02 00:00:11;;;;;;;13.07;9.57;;;6.60;99.90;;;;;;5041610;28;20579;-50
2022/05/02 00:02:38;;;;;;;12.05;9.00;;;6.60;99.90;;;;;;5041204;28;20084;-50
2022/05/02 00:05:05;;;;;;;12.43;9.48;;;6.60;99.90;;;;;;5040544;28;20805;-51
2022/05/02 00:07:32;;;;;;;9.45;8.55;;;6.50;99.90;;;;;;5041288;28;20136;-47
2022/05/02 00:09:58;;;;;;;11.38;8.98;;;6.50;99.90;;;;;;5041748;28;20504;-49
2022/05/02 00:12:25;;;;;;;15.18;8.90;;;6.40;99.90;;;;;;5041024;28;20072;-50
2022/05/02 00:14:51;;;;;;;12.52;9.90;;;6.40;99.90;;;;;;5007906;28;20481;-47
2022/05/02 00:17:17;;;;;;;11.60;9.23;;;6.40;99.90;;;;;;5039941;28;20057;-48
2022/05/02 00:19:43;;;;;;;13.15;9.98;;;6.40;99.90;;;;;;5041392;28;20045;-51
2022/05/02 00:22:09;;;;;;;11.10;9.68;;;6.40;99.90;;;;;;5038499;28;20114;-50
2022/05/02 00:24:37;;;;;;;10.68;8.93;;;6.30;99.90;;;;;;5007448;28;20053;-50
2022/05/02 00:27:05;;;;;;;10.75;9.50;;;6.30;99.90;;;;;;5037609;28;20053;-52
2022/05/02 00:29:31;;;;;;;12.18;9.35;;;6.30;99.90;;;;;;5041044;28;20044;-51
2022/05/02 00:31:57;;;;;;;10.80;9.70;;;6.10;99.90;;;;;;5042730;28;20531;-52
2022/05/02 00:34:23;;;;;;;10.95;9.13;;;6.10;99.90;;;;;;5039996;28;20048;-51
2022/05/02 00:36:49;;;;;;;11.43;8.52;;;6.00;99.90;;;;;;5040020;28;20459;-50
2022/05/02 00:39:16;;;;;;;11.85;9.15;;;6.00;99.90;;;;;;5041060;28;20080;-49
2022/05/02 00:41:43;;;;;;;10.25;9.23;;;5.90;99.90;;;;;;5040647;28;20053;-48
2022/05/02 00:44:09;;;;;;;10.80;9.63;;;6.00;99.90;;;;;;5041619;28;20057;-50
2022/05/02 00:46:36;;;;;;;11.02;9.23;;;5.90;99.90;;;;;;5043952;28;20048;-51
2022/05/02 00:49:02;;;;;;;11.15;9.57;;;5.90;99.90;;;;;;5046015;28;20057;-51
2022/05/02 00:51:28;;;;;;;12.88;10.48;;;5.90;99.90;;;;;;5043738;28;20052;-50
2022/05/02 00:53:54;;;;;;;11.05;9.35;;;5.80;99.90;;;;;;5045077;28;20052;-51
2022/05/02 00:56:21;;;;;;;11.27;9.90;;;5.80;99.90;;;;;;5010047;28;20102;-50
2022/05/02 00:58:52;;;;;;;11.35;9.88;;;5.80;99.90;;;;;;5043895;28;20428;-46
2022/05/02 01:01:18;;;;;;;11.90;9.38;;;5.80;99.90;;;;;;5043364;28;20132;-49
2022/05/02 01:03:44;;;;;;;12.32;10.00;;;5.70;99.90;;;;;;5043516;28;20254;-45
2022/05/02 01:08:56;;;;;;;11.00;9.90;;;5.70;99.90;;;;;;5030263;28;20456;-50
2022/05/02 01:11:22;;;;;;;13.10;11.15;;;5.70;99.90;;;;;;5042181;28;20053;-49
2022/05/02 01:13:49;;;;;;;12.23;10.98;;;5.60;99.90;;;;;;5042616;28;20049;-49
2022/05/02 01:16:27;;;;;;;12.52;11.10;;;5.60;99.90;;;;;;5026450;28;20048;-50
2022/05/02 01:18:56;;;;;;;11.85;10.57;;;5.60;99.90;;;;;;5025795;28;20041;-50
2022/05/02 01:21:25;;;;;;;13.80;11.13;;;5.60;99.90;;;;;;5042626;28;20045;-51
2022/05/02 01:23:54;;;;;;;15.20;11.68;;;5.50;99.90;;;;;;5042014;28;20374;-50
2022/05/02 01:26:21;;;;;;;12.05;10.77;;;5.50;99.90;;;;;;5027023;28;20049;-52
2022/05/02 01:28:50;;;;;;;13.82;11.02;;;5.40;99.90;;;;;;5043007;28;20045;-49
2022/05/02 01:31:18;;;;;;;12.18;10.27;;;5.40;99.90;;;;;;5045489;28;20408;-49
2022/05/02 01:33:44;;;;;;;14.02;10.27;;;5.40;99.90;;;;;;5042984;28;20599;-49
2022/05/02 01:36:10;;;;;;;14.77;10.18;;;5.30;99.90;;;;;;5043300;28;20052;-48
2022/05/02 01:38:37;;;;;;;13.25;11.15;;;5.30;99.90;;;;;;5044251;28;20052;-50
2022/05/02 01:41:05;;;;;;;15.55;11.48;;;5.30;99.90;;;;;;5045558;28;20136;-47
2022/05/02 01:43:31;;;;;;;11.60;10.23;;;5.20;99.90;;;;;;5044368;28;20045;-51
2022/05/02 01:46:01;;;;;;;12.57;10.73;;;5.20;99.90;;;;;;5044391;28;20048;-48
2022/05/02 01:48:28;;;;;;;13.93;10.60;;;5.20;99.90;;;;;;5042649;28;20147;-49
2022/05/02 01:50:54;;;;;;;12.68;10.20;;;5.10;99.90;;;;;;5045179;28;20470;-50
2022/05/02 01:53:21;;;;;;;12.63;10.77;;;5.10;99.90;;;;;;5044428;28;20076;-47
2022/05/02 01:55:47;;;;;;;13.05;11.50;;;5.10;99.90;;;;;;5028214;28;20152;-45
2022/05/02 01:58:14;;;;;;;16.48;10.95;;;5.10;99.90;;;;;;5040317;28;20080;-50
2022/05/02 02:00:40;;;;;;;12.30;10.98;;;5.10;99.90;;;;;;5027203;28;20120;-52
2022/05/02 02:03:06;;;;;;;14.93;11.88;;;5.10;99.90;;;;;;5043787;28;20072;-51
2022/05/02 02:05:51;;;;;;;13.90;12.18;;;5.00;99.90;;;;;;5044871;28;20049;-47
2022/05/02 02:08:26;;;;;;;14.10;12.57;;;5.00;99.90;;;;;;5035325;28;20061;-50
2022/05/02 02:10:56;;;;;;;15.52;11.48;;;5.00;99.90;;;;;;5042676;28;20040;-49
2022/05/02 02:13:22;;;;;;;15.30;12.50;;;5.00;99.90;;;;;;5042441;28;20064;-54
2022/05/02 02:15:49;;;;;;;13.52;10.75;;;5.00;99.90;;;;;;5025664;28;20057;-47
2022/05/02 02:18:15;;;;;;;14.05;11.88;;;5.00;99.90;;;;;;5041751;28;20084;-46
2022/05/02 02:20:47;;;;;;;14.48;12.32;;;4.90;99.90;;;;;;5039751;28;20056;-49
2022/05/02 02:23:14;;;;;;;12.77;11.48;;;4.90;99.90;;;;;;5043960;28;20115;-50
2022/05/02 02:25:41;;;;;;;14.55;11.75;;;4.80;99.90;;;;;;5025514;28;20052;-51
2022/05/02 02:28:08;;;;;;;13.75;12.13;;;4.80;99.90;;;;;;5043786;28;20848;-51
2022/05/02 02:30:34;;;;;;;15.00;11.95;;;4.80;99.90;;;;;;5041829;28;20076;-52
2022/05/02 02:33:01;;;;;;;14.88;12.32;;;4.80;99.90;;;;;;5008321;28;20566;-52
2022/05/02 02:35:28;;;;;;;14.27;11.20;;;4.70;99.90;;;;;;5042896;28;20048;-50
2022/05/02 02:37:54;;;;;;;12.10;10.88;;;4.70;99.90;;;;;;5043674;28;20061;-48
2022/05/02 02:40:21;;;;;;;13.18;11.48;;;4.60;99.90;;;;;;5007352;28;20049;-48
2022/05/02 02:42:47;;;;;;;15.18;12.23;;;4.60;99.90;;;;;;5042428;28;20793;-47
2022/05/02 02:45:14;;;;;;;13.70;11.70;;;4.60;99.90;;;;;;5044289;28;20161;-48
2022/05/02 02:47:41;;;;;;;14.52;12.35;;;4.50;99.90;;;;;;5044507;28;20059;-50
2022/05/02 02:50:07;;;;;;;15.57;12.60;;;4.50;99.90;;;;;;5043075;28;20072;-49
2022/05/02 02:52:34;;;;;;;13.40;12.00;;;4.40;99.90;;;;;;5040804;28;20053;-51
2022/05/02 02:55:00;;;;;;;13.50;12.15;;;4.40;99.90;;;;;;5042907;28;20124;-51
2022/05/02 02:57:26;;;;;;;13.45;11.98;;;4.40;99.90;;;;;;5044469;28;20489;-53
2022/05/02 02:59:52;;;;;;;13.05;11.63;;;4.40;99.90;;;;;;5041756;28;20787;-48
2022/05/02 03:02:18;;;;;;;12.85;11.50;;;4.40;99.90;;;;;;5040451;28;20128;-46
2022/05/02 03:07:30;;;;;;;17.77;13.75;;;4.30;99.90;;;;;;5039111;28;20569;-48
2022/05/02 03:09:57;;;;;;;15.15;12.43;;;4.30;99.90;;;;;;5042503;28;20118;-53
2022/05/02 03:12:24;;;;;;;15.60;12.75;;;4.30;99.90;;;;;;5039801;28;20049;-51
2022/05/02 03:14:50;;;;;;;16.88;13.05;;;4.20;99.90;;;;;;5042869;28;20057;-51
2022/05/02 03:17:16;;;;;;;15.15;13.55;;;4.20;99.90;;;;;;5042914;28;20053;-51
2022/05/02 03:19:42;;;;;;;13.52;12.10;;;4.10;99.90;;;;;;5043042;28;20124;-51
2022/05/02 03:22:09;;;;;;;13.75;12.32;;;4.10;99.90;;;;;;5041341;28;20041;-50
2022/05/02 03:24:36;;;;;;;13.65;12.02;;;4.10;99.90;;;;;;5041350;28;20081;-48
2022/05/02 03:27:03;;;;;;;12.90;11.63;;;4.10;99.90;;;;;;5043278;28;20053;-50
2022/05/02 03:29:29;;;;;;;12.55;11.05;;;4.10;99.90;;;;;;5039125;28;20514;-48
2022/05/02 03:31:55;;;;;;;15.43;12.18;;;4.10;99.90;;;;;;5041984;28;20060;-51
2022/05/02 03:34:21;;;;;;;13.40;11.25;;;4.10;99.90;;;;;;4973285;28;20132;-50
2022/05/02 03:36:47;;;;;;;16.15;11.57;;;4.00;99.90;;;;;;5041531;28;20815;-51
2022/05/02 03:39:13;;;;;;;15.55;12.48;;;4.00;99.90;;;;;;5042396;28;20067;-47
2022/05/02 03:41:39;;;;;;;14.10;11.80;;;4.00;99.90;;;;;;5041620;28;20071;-48
2022/05/02 03:44:05;;;;;;;14.73;13.02;;;4.00;99.90;;;;;;5039596;28;20128;-46
2022/05/02 03:46:32;;;;;;;16.15;13.75;;;3.90;99.90;;;;;;5041184;28;20053;-46
2022/05/02 03:49:00;;;;;;;15.65;12.65;;;3.90;99.90;;;;;;5041032;28;20067;-47
2022/05/02 03:51:27;;;;;;;13.63;12.23;;;3.90;99.90;;;;;;5042896;28;20053;-51
2022/05/02 03:53:53;;;;;;;15.98;12.75;;;3.90;99.90;;;;;;5040441;28;20057;-51
2022/05/02 03:56:19;;;;;;;15.60;12.73;;;3.80;99.90;;;;;;5041998;28;20098;-51
2022/05/02 03:58:45;;;;;;;14.88;12.60;;;3.80;99.90;;;;;;5041815;28;20836;-49
2022/05/02 04:01:11;;;;;;;13.82;12.38;;;3.80;99.90;;;;;;5043735;28;20055;-51
2022/05/02 04:03:37;;;;;;;15.13;11.93;;;3.80;99.90;;;;;;5023943;28;20091;-48
2022/05/02 04:06:04;;;;;;;13.27;11.85;;;3.80;99.90;;;;;;5041257;28;20048;-48
2022/05/02 04:08:30;;;;;;;14.60;11.98;;;3.80;99.90;;;;;;5040381;28;20045;-48
2022/05/02 04:10:56;;;;;;;16.00;12.40;;;3.70;99.90;;;;;;5041101;28;20056;-54
2022/05/02 04:13:22;;;;;;;15.70;12.38;;;3.70;99.90;;;;;;5043606;28;20106;-51
2022/05/02 04:15:49;;;;;;;15.55;13.38;;;3.70;99.90;;;;;;5022794;28;20729;-53
2022/05/02 04:18:15;;;;;;;14.85;13.27;;;3.80;99.90;;;;;;5041059;28;20110;-51
2022/05/02 04:20:42;;;;;;;16.38;13.68;;;3.80;99.90;;;;;;5041719;28;20451;-52
2022/05/02 04:23:08;;;;;;;15.13;13.50;;;3.80;99.90;;;;;;5042740;28;20868;-48
2022/05/02 04:25:34;;;;;;;14.73;12.57;;;3.80;99.90;;;;;;5038756;28;20488;-48
2022/05/02 04:28:00;;;;;;;13.57;12.05;;;3.80;99.90;;;;;;5045631;28;20132;-48
2022/05/02 04:30:26;;;;;;;14.95;13.35;;;3.80;99.90;;;;;;5045835;28;20049;-52
2022/05/02 04:32:52;;;;;;;14.48;12.98;;;3.80;99.90;;;;;;5039937;28;20056;-50
2022/05/02 04:35:19;;;;;;;15.57;13.52;;;3.90;99.90;;;;;;5040546;28;20052;-49
2022/05/02 04:37:45;;;;;;;14.48;12.98;;;3.90;99.90;;;;;;5045461;28;20041;-48
2022/05/02 04:40:11;;;;;;;14.93;13.38;;;3.90;99.90;;;;;;5045345;28;20428;-49
2022/05/02 04:42:38;;;;;;;21.40;14.95;;;4.00;99.90;;;;;;5046567;28;20049;-49
2022/05/02 04:45:05;;;;;;;15.88;13.88;;;4.00;99.90;;;;;;5027556;28;20491;-48
2022/05/02 04:47:31;;;;;;;17.55;14.43;;;4.10;99.90;;;;;;5044560;28;20056;-50
2022/05/02 04:49:57;;;;;;;16.88;14.13;;;4.10;99.90;;;;;;5044676;28;20412;-51
2022/05/02 04:52:24;;;;;;;17.35;14.95;;;4.10;99.90;;;;;;5045174;28;20072;-52
2022/05/02 04:54:50;;;;;;;19.10;15.63;;;4.20;99.90;;;;;;5042633;28;20048;-53
2022/05/02 04:57:16;;;;;;;18.92;16.92;;;4.20;99.90;;;;;;5021141;28;20102;-51
2022/05/02 04:59:42;;;;;;;22.45;16.80;;;4.30;99.90;;;;;;5036300;28;20111;-48
2022/05/02 05:02:09;;;;;;;22.17;18.88;;;4.40;99.90;;;;;;5040583;28;20104;-49
2022/05/02 05:04:35;;;;;;;22.20;19.85;;;4.50;99.90;;;;;;5029261;28;20136;-50
2022/05/02 05:07:02;;;;;;;21.13;18.73;;;4.70;99.90;;;;;;5027617;28;20051;-48
2022/05/02 05:09:28;;;;;;;17.25;15.55;;;5.00;99.90;;;;;;5046644;28;20071;-52
2022/05/02 05:11:57;;;;;;;19.70;17.23;;;5.40;99.90;;;;;;5025572;28;20045;-50
2022/05/02 05:17:55;;;;;;;17.05;14.73;;;6.00;99.90;;;;;;5032500;28;20048;-49
2022/05/02 05:21:03;;;;;;;17.17;15.40;;;6.30;99.90;;;;;;5045409;28;20049;-48
2022/05/02 05:23:56;;;;;;;15.55;13.85;;;6.50;99.90;;;;;;5030030;28;20138;-50
2022/05/02 05:26:46;;;;;;;16.15;14.50;;;6.70;99.90;;;;;;5042057;28;20053;-48
2022/05/02 05:29:26;;;;;;;16.10;14.50;;;6.80;99.90;;;;;;5044505;28;20045;-47
2022/05/02 05:32:02;;;;;;;18.73;14.90;;;6.80;99.90;;;;;;5046601;28;20123;-49
2022/05/02 05:35:03;;;;;;;16.23;14.63;;;7.00;99.90;;;;;;5044709;28;20061;-51
2022/05/02 05:37:32;;;;;;;15.60;13.98;;;7.10;99.90;;;;;;5043578;28;20128;-47
2022/05/02 05:40:28;;;;;;;15.68;14.02;;;7.30;99.90;;;;;;5044147;28;20044;-46
2022/05/02 05:43:16;;;;;;;15.90;14.32;;;7.50;99.90;;;;;;5025515;28;20504;-50
2022/05/02 05:46:15;;;;;;;16.67;14.02;;;7.60;99.90;;;;;;5027823;28;20317;-50
2022/05/02 05:49:03;;;;;;;14.77;13.27;;;7.80;99.90;;;;;;5036959;28;20053;-47
2022/05/02 05:51:38;;;;;;;16.73;13.85;;;7.90;99.90;;;;;;5051903;28;20523;-53
2022/05/02 05:54:29;;;;;;;14.80;13.25;;;8.00;99.90;;;;;;5044921;28;20053;-50
2022/05/02 05:57:13;;;;;;;13.65;12.27;;;8.20;99.90;;;;;;5026608;28;20554;-48
2022/05/02 05:59:58;;;;;;;15.48;12.38;;;8.30;99.90;;;;;;5044740;28;20128;-50
2022/05/02 06:02:50;;;;;;;16.17;13.82;;;8.50;99.90;;;;;;5060411;28;20082;-51
2022/05/02 06:05:17;;;;;;;14.18;12.90;;;8.70;99.90;;;;;;5028681;28;20594;-53
2022/05/02 06:07:46;;;;;;;15.10;12.35;;;8.70;99.90;;;;;;5043921;28;20490;-55
2022/05/02 06:10:14;;;;;;;13.48;12.07;;;8.80;99.90;;;;;;5014191;28;20053;-49
2022/05/02 06:12:43;;;;;;;13.63;12.23;;;9.00;99.90;;;;;;5042492;28;20531;-49
2022/05/02 06:20:47;;;;;;;15.07;12.05;;;9.50;99.90;;;;;;5045466;28;20045;-55
2022/05/02 06:23:14;;;;;;;13.02;11.68;;;9.60;99.90;;;;;;5047050;28;20145;-50
2022/05/02 06:25:43;;;;;;;13.30;11.90;;;9.70;99.90;;;;;;5044008;28;20045;-48
2022/05/02 06:28:10;;;;;;;12.65;11.35;;;9.90;99.90;;;;;;5036969;28;20070;-48
2022/05/02 06:30:41;;;;;;;11.75;10.52;;;10.10;99.90;;;;;;5011815;28;20056;-48
2022/05/02 06:33:14;;;;;;;12.40;11.10;;;10.40;99.90;;;;;;5045540;28;20052;-49
2022/05/02 06:35:58;;;;;;;13.90;11.50;;;10.60;99.90;;;;;;5041319;28;20307;-54
2022/05/02 06:38:45;;;;;;;12.32;10.93;;;10.90;99.90;;;;;;5045984;28;20057;-53
2022/05/02 06:41:26;;;;;;;11.32;10.05;;;11.00;99.90;;;;;;5032441;28;20040;-50
2022/05/02 06:44:20;;;;;;;11.80;10.65;;;11.30;99.90;;;;;;5031913;28;20060;-48
2022/05/02 06:47:15;;;;;;;11.85;10.20;;;11.60;99.90;;;;;;5036257;28;20420;-54
2022/05/02 06:49:43;;;;;;;11.77;10.60;;;11.80;99.90;;;;;;5010726;28;20037;-50
2022/05/02 06:52:11;;;;;;;11.48;9.68;;;12.10;99.90;;;;;;5029237;28;20459;-53
2022/05/02 06:55:00;;;;;;;13.57;9.85;;;12.20;99.90;;;;;;5015695;28;20147;-53
2022/05/02 06:57:47;;;;;;;11.32;10.00;;;12.50;99.90;;;;;;5012427;28;20049;-53
2022/05/02 07:00:17;;;;;;;12.23;10.93;;;12.70;99.90;;;;;;5026461;28;20787;-50
2022/05/02 07:03:20;;;;;;;10.73;9.73;;;13.00;99.90;;;;;;5031373;28;20060;-51
2022/05/02 07:06:05;;;;;;;11.60;9.45;;;13.30;99.90;;;;;;5013796;28;20063;-48
2022/05/02 07:08:38;;;;;;;10.13;9.02;;;13.60;99.90;;;;;;5027390;28;20045;-49
2022/05/02 07:11:08;;;;;;;14.77;12.85;;;13.80;99.90;;;;;;5043261;28;20049;-50
2022/05/02 07:13:49;;;;;;;11.93;10.38;;;14.00;99.90;;;;;;5037584;28;20139;-48
2022/05/02 07:16:23;;;;;;;11.30;8.68;;;14.20;99.90;;;;;;5020165;28;20397;-50
2022/05/02 07:19:08;;;;;;;12.00;10.80;;;14.40;99.90;;;;;;5029531;28;20051;-50
2022/05/02 07:21:53;;;;;;;16.50;14.98;;;14.80;99.90;;;;;;5042536;28;20118;-52
2022/05/02 07:25:01;;;;;;;41.05;36.85;;;14.90;99.90;;;;;;5034763;28;20052;-51
2022/05/02 07:27:51;;;;;;;11.98;10.00;;;15.50;99.90;;;;;;4983707;28;20082;-52
2022/05/02 07:30:23;;;;;;;13.30;11.90;;;15.80;99.90;;;;;;4973299;28;20054;-48
2022/05/02 07:32:51;;;;;;;13.10;9.20;;;16.30;99.90;;;;;;4995911;28;20064;-51
2022/05/02 07:35:18;;;;;;;12.43;9.35;;;16.50;99.90;;;;;;5020767;28;20513;-53
2022/05/02 07:37:46;;;;;;;12.15;9.25;;;16.80;99.90;;;;;;5032291;28;20065;-52
2022/05/02 07:40:14;;;;;;;11.15;8.68;;;17.00;99.90;;;;;;5038812;28;20114;-48
2022/05/02 07:42:42;;;;;;;10.77;9.57;;;17.20;99.90;;;;;;5009205;28;20080;-48
2022/05/02 07:45:10;;;;;;;10.90;9.45;;;17.40;99.90;;;;;;5033769;28;20052;-50
2022/05/02 07:47:37;;;;;;;14.73;13.10;;;17.50;99.90;;;;;;5030377;28;20045;-50
2022/05/02 07:50:05;;;;;;;13.32;9.75;;;17.80;99.90;;;;;;5001176;28;20045;-50
2022/05/02 07:52:35;;;;;;;25.98;23.27;;;17.80;99.90;;;;;;5034970;28;20041;-51
2022/05/02 07:55:03;;;;;;;9.23;8.20;;;17.60;99.90;;;;;;5033987;28;20416;-50
2022/05/02 07:57:37;;;;;;;8.98;7.55;;;17.80;99.90;;;;;;5056553;28;20449;-48
2022/05/02 08:00:07;;;;;;;12.88;9.90;;;18.20;99.90;;;;;;5028381;28;20099;-48
2022/05/02 08:02:38;;;;;;;28.92;26.20;;;18.50;99.90;;;;;;5013356;28;20099;-48
2022/05/02 08:05:05;;;;;;;8.60;7.70;;;18.40;99.90;;;;;;5006920;28;20071;-48
2022/05/02 08:07:38;;;;;;;16.98;9.38;;;18.50;95.90;;;;;;5034484;28;20160;-58
2022/05/02 08:10:36;;;;;;;10.02;9.02;;;18.70;94.00;;;;;;5034357;28;20389;-58
2022/05/02 08:13:16;;;;;;;10.68;9.63;;;19.00;87.60;;;;;;5011272;28;20629;-49
2022/05/02 08:15:57;;;;;;;7.45;6.65;;;19.00;87.60;;;;;;5037830;28;20053;-50
2022/05/02 08:18:55;;;;;;;8.55;6.35;;;19.10;83.80;;;;;;5045659;28;20107;-49
2022/05/02 08:21:32;;;;;;;10.45;7.35;;;19.30;78.90;;;;;;5025379;28;20048;-47
2022/05/02 08:27:21;;;;;;;8.95;8.05;;;19.60;73.80;;;;;;5005225;28;20068;-51
2022/05/02 08:30:14;;;;;;;10.07;7.55;;;19.60;76.50;;;;;;4997243;28;20073;-49
2022/05/02 08:32:52;;;;;;;8.95;8.02;;;19.90;73.00;;;;;;5040948;28;20052;-48
2022/05/02 08:35:24;;;;;;;76.03;68.55;;;20.00;77.50;;;;;;5053313;28;20394;-51
2022/05/02 08:38:28;;;;;;;14.52;12.13;;;20.10;70.60;;;;;;5038938;28;20409;-47
2022/05/02 08:41:39;;;;;;;28.80;25.83;;;20.20;66.20;;;;;;5015157;28;20087;-48
2022/05/02 08:44:29;;;;;;;28.48;25.67;;;20.60;59.40;;;;;;5028655;28;20627;-49
2022/05/02 08:47:32;;;;;;;11.80;10.65;;;20.50;52.70;;;;;;5028566;28;20124;-50
2022/05/02 08:50:20;;;;;;;12.40;9.60;;;20.60;53.10;;;;;;5032342;28;20048;-47
2022/05/02 08:52:53;;;;;;;11.23;9.40;;;20.70;51.60;;;;;;5036047;28;20705;-49
2022/05/02 08:55:35;;;;;;;7.90;6.55;;;20.50;54.90;;;;;;5034969;28;20053;-51
2022/05/02 08:58:26;;;;;;;9.80;8.40;;;20.70;56.60;;;;;;5029136;28;20596;-58
2022/05/02 09:01:16;;;;;;;12.25;10.95;;;20.90;56.50;;;;;;5040228;28;20056;-58
2022/05/02 09:04:12;;;;;;;9.52;7.35;;;21.30;56.20;;;;;;5036070;28;20045;-58
2022/05/02 09:06:57;;;;;;;7.93;7.15;;;21.40;51.10;;;;;;5027363;28;20049;-58
2022/05/02 09:09:39;;;;;;;9.32;7.28;;;21.50;51.90;;;;;;5051366;28;20064;-58
2022/05/02 09:12:12;;;;;;;8.20;7.13;;;21.70;52.60;;;;;;5037478;28;20444;-58
2022/05/02 09:15:10;;;;;;;9.07;6.70;;;21.50;48.80;;;;;;5027054;28;20053;-58
2022/05/02 09:17:48;;;;;;;9.75;8.40;;;22.20;48.50;;;;;;5028578;28;20505;-58
2022/05/02 09:20:32;;;;;;;8.57;6.95;;;22.10;49.30;;;;;;5012456;28;20057;-58
2022/05/02 09:23:24;;;;;;;9.07;7.03;;;21.40;48.50;;;;;;5032015;28;20045;-58
2022/05/02 09:26:06;;;;;;;9.90;8.73;;;20.70;49.70;;;;;;5044053;28;20048;-58
2022/05/02 09:28:38;;;;;;;16.48;14.77;;;20.70;49.10;;;;;;5032286;28;20055;-58
2022/05/02 09:31:39;;;;;;;12.73;11.25;;;21.20;48.70;;;;;;5032849;28;20501;-51
2022/05/02 09:34:25;;;;;;;11.10;10.00;;;21.70;47.30;;;;;;5011786;28;20045;-58
2022/05/02 09:36:57;;;;;;;6.85;5.47;;;22.00;46.90;;;;;;5060290;28;20496;-58
2022/05/02 09:39:30;;;;;;;11.13;7.88;;;22.30;47.50;;;;;;5027468;28;20130;-58
2022/05/02 09:41:59;;;;;;;10.90;9.57;;;22.30;46.50;;;;;;5028725;28;20049;-58
2022/05/02 09:50:44;;;;;;;7.20;6.47;;;19.70;46.80;;;;;;5026755;28;20052;-58
2022/05/02 09:53:29;;;;;;;7.72;6.38;;;20.10;48.90;;;;;;5036229;28;20110;-53
2022/05/02 09:59:02;;;;;;;8.20;6.97;;;20.40;48.50;;;;;;5037050;28;20045;-58
2022/05/02 10:01:31;;;;;;;8.95;6.57;;;19.60;45.80;;;;;;5042471;28;20161;-52
2022/05/02 10:04:08;;;;;;;6.93;6.07;;;19.20;46.90;;;;;;5040142;28;20053;-48
2022/05/02 10:06:54;;;;;;;7.97;6.22;;;18.50;48.10;;;;;;5028831;28;20053;-50
2022/05/02 10:09:31;;;;;;;7.95;6.50;;;19.60;51.70;;;;;;5042272;28;20068;-52
2022/05/02 10:12:06;;;;;;;7.47;5.70;;;20.20;50.70;;;;;;5028383;28;20080;-53
2022/05/02 10:15:06;;;;;;;8.02;5.57;;;20.80;48.00;;;;;;5032480;28;20053;-50
2022/05/02 10:18:01;;;;;;;8.35;5.78;;;21.60;45.40;;;;;;5043528;28;20052;-54
2022/05/02 10:21:08;;;;;;;6.55;5.28;;;22.10;43.90;;;;;;5033240;28;20086;-55
2022/05/02 10:23:46;;;;;;;7.18;5.30;;;22.50;43.40;;;;;;5036061;28;20056;-51
2022/05/02 10:26:28;;;;;;;7.13;5.38;;;22.80;43.40;;;;;;5022423;28;20037;-54
2022/05/02 10:29:30;;;;;;;6.05;4.88;;;22.50;40.90;;;;;;5037763;28;20052;-57
2022/05/02 10:32:45;;;;;;;5.65;5.05;;;22.00;38.00;;;;;;5033991;28;20049;-51
2022/05/02 10:35:17;;;;;;;4.82;4.20;;;22.30;40.10;;;;;;5032009;28;20052;-52
2022/05/02 10:37:57;;;;;;;7.57;4.40;;;22.60;41.10;;;;;;5030511;28;20046;-55
2022/05/02 10:40:45;;;;;;;6.90;4.93;;;22.70;38.90;;;;;;5029252;28;20045;-49
2022/05/02 10:43:20;;;;;;;10.63;5.07;;;22.80;38.60;;;;;;5032070;28;20049;-55
2022/05/02 10:45:49;;;;;;;5.45;4.80;;;22.70;38.80;;;;;;5042152;28;20044;-51
2022/05/02 10:48:18;;;;;;;6.60;5.32;;;23.00;39.60;;;;;;5028273;28;20106;-49
2022/05/02 10:51:03;;;;;;;7.10;6.13;;;23.00;39.10;;;;;;5041525;28;20041;-55
2022/05/02 10:53:36;;;;;;;9.77;6.10;;;23.20;40.00;;;;;;5029647;28;20056;-56
2022/05/02 10:56:32;;;;;;;6.68;5.97;;;23.70;41.00;;;;;;5022332;28;20053;-48
2022/05/02 10:59:02;;;;;;;10.93;8.68;;;24.20;39.70;;;;;;5031577;28;20832;-55
2022/05/02 11:01:53;;;;;;;7.77;5.70;;;24.50;39.80;;;;;;5026545;28;20103;-51
2022/05/02 11:04:25;;;;;;;;;;;24.30;38.80;;;;;;5039577;28;20924;-52
2022/05/02 11:07:25;;;;;;;6.32;5.15;;;24.30;39.60;;;;;;5031889;28;20643;-51
2022/05/02 11:10:11;;;;;;;6.25;4.68;;;22.90;37.00;;;;;;5011599;28;20045;-56
2022/05/02 11:12:41;;;;;;;5.30;4.53;;;21.90;37.10;;;;;;5040818;28;20072;-56
2022/05/02 11:15:17;;;;;;;6.75;5.38;;;22.10;39.70;;;;;;5031122;28;20489;-55
2022/05/02 11:18:08;;;;;;;7.90;5.25;;;22.00;40.20;;;;;;5025036;28;20512;-52
2022/05/02 11:20:42;;;;;;;7.63;5.95;;;23.00;39.70;;;;;;5029610;28;20045;-56
2022/05/02 11:23:31;;;;;;;6.93;5.95;;;23.40;39.60;;;;;;5028707;28;20093;-52
2022/05/02 11:26:32;;;;;;;6.55;5.00;;;23.50;38.40;;;;;;5027994;28;20487;-57
2022/05/02 11:29:21;;;;;;;;;;;23.90;37.70;;;;;;5010574;28;20131;-56
2022/05/02 11:31:58;;;;;;;8.75;6.55;;;23.90;37.30;;;;;;5021804;28;19921;-51
2022/05/02 11:34:43;;;;;;;9.45;6.80;;;24.20;37.90;;;;;;5010498;28;20136;-56
2022/05/02 11:37:34;;;;;;;6.78;5.05;;;24.70;35.50;;;;;;5037359;28;20456;-54
2022/05/02 11:40:11;;;;;;;5.95;5.07;;;24.90;35.10;;;;;;5024184;28;20045;-57
2022/05/02 11:42:46;;;;;;;7.13;4.70;;;24.80;36.30;;;;;;5035103;28;20133;-54
2022/05/02 11:45:14;;;;;;;5.50;4.60;;;24.60;35.50;;;;;;5027081;28;20053;-55
2022/05/02 11:48:11;;;;;;;7.13;5.20;;;25.00;36.30;;;;;;5012847;28;20110;-55
2022/05/02 11:50:46;;;;;;;7.45;5.50;;;25.20;35.80;;;;;;5028111;28;20042;-55
2022/05/02 11:53:16;;;;;;;6.40;5.53;;;25.90;35.60;;;;;;5029752;28;20056;-55
2022/05/02 11:55:45;;;;;;;5.60;4.65;;;25.90;35.40;;;;;;5037526;28;20053;-55
2022/05/02 11:58:14;;;;;;;6.43;4.40;;;25.50;34.50;;;;;;5018505;28;20048;-56
2022/05/02 12:00:43;;;;;;;4.70;3.80;;;25.60;34.10;;;;;;5030302;28;20077;-56
2022/05/02 12:03:23;;;;;;;6.85;4.93;;;25.40;34.40;;;;;;5028492;28;20049;-54
2022/05/02 12:05:52;;;;;;;4.63;3.85;;;25.10;33.30;;;;;;5037367;28;20124;-56
2022/05/02 12:08:33;;;;;;;11.32;10.23;;;24.80;34.90;;;;;;5041687;28;20070;-56
2022/05/02 12:11:07;;;;;;;6.22;5.45;;;25.20;36.70;;;;;;5029024;28;20492;-46
2022/05/02 12:13:36;;;;;;;7.97;4.95;;;25.20;37.80;;;;;;5032734;28;20143;-51
2022/05/02 12:16:04;;;;;;;7.10;5.18;;;24.80;36.40;;;;;;5041147;28;20049;-50
2022/05/02 12:18:50;;;;;;;6.30;5.00;;;25.00;35.70;;;;;;5025051;28;20053;-56
2022/05/02 12:21:41;;;;;;;6.82;4.70;;;24.90;36.50;;;;;;5042455;28;20037;-48
2022/05/02 12:24:09;;;;;;;5.78;4.25;;;25.60;35.20;;;;;;5025039;28;20466;-52
2022/05/02 12:26:47;;;;;;;7.63;5.53;;;25.70;35.60;;;;;;5020153;28;20068;-49
2022/05/02 12:29:17;;;;;;;7.18;4.40;;;26.20;35.30;;;;;;5055722;28;20041;-48
2022/05/02 12:31:52;;;;;;;7.72;5.35;;;26.20;35.60;;;;;;5038620;28;20044;-49
2022/05/02 12:34:20;;;;;;;7.60;5.00;;;25.90;34.50;;;;;;5025662;28;20049;-51
2022/05/02 12:36:49;;;;;;;5.78;4.68;;;25.20;34.00;;;;;;5036882;28;20440;-51
2022/05/02 12:39:31;;;;;;;7.03;4.38;;;25.60;34.90;;;;;;5028834;28;20041;-51
2022/05/02 12:42:25;;;;;;;11.82;8.13;;;26.50;35.30;;;;;;5036774;28;20045;-56
2022/05/02 12:44:59;;;;;;;14.25;9.85;;;26.80;34.20;;;;;;5046310;28;20045;-56
2022/05/02 12:47:28;;;;;;;11.80;8.73;;;26.60;33.80;;;;;;5030376;28;20053;-50
2022/05/02 12:50:16;;;;;;;5.40;3.80;;;25.60;33.50;;;;;;4989807;28;20818;-51
2022/05/02 12:52:48;;;;;;;7.18;4.97;;;24.80;33.20;;;;;;5046012;28;20060;-51
2022/05/02 12:55:17;;;;;;;7.57;4.95;;;24.60;34.60;;;;;;5037911;28;20057;-51
2022/05/02 13:00:36;;;;;;;6.00;4.25;;;24.90;35.50;;;;;;5029624;28;20317;-51
2022/05/02 13:03:10;;;;;;;6.68;4.25;;;24.60;35.10;;;;;;5037921;28;20427;-51
2022/05/02 13:05:41;;;;;;;6.85;3.70;;;24.70;34.60;;;;;;5044119;28;20132;-50
2022/05/02 13:08:08;;;;;;;6.22;3.55;;;25.30;33.80;;;;;;5037101;28;21299;-56
2022/05/02 13:10:35;;;;;;;9.73;4.63;;;25.30;33.30;;;;;;5044716;28;20775;-56
2022/05/02 13:13:07;;;;;;;6.03;4.43;;;26.30;34.30;;;;;;5042841;28;20041;-51
2022/05/02 13:15:45;;;;;;;5.10;4.20;;;25.80;33.50;;;;;;5026331;28;20058;-51
2022/05/02 13:18:22;;;;;;;5.00;4.00;;;25.40;32.60;;;;;;5045414;28;20068;-56
2022/05/02 13:21:04;;;;;;;6.78;4.75;;;25.00;32.10;;;;;;5028501;28;20798;-57
2022/05/02 13:23:37;;;;;;;7.18;3.90;;;25.80;33.00;;;;;;5045270;28;20102;-56
2022/05/02 13:26:11;;;;;;;5.78;4.32;;;25.90;33.50;;;;;;5034441;28;20096;-57
2022/05/02 13:28:44;;;;;;;7.00;3.97;;;26.30;33.30;;;;;;5031074;28;20443;-56
2022/05/02 13:31:35;;;;;;;9.48;6.53;;;26.60;32.90;;;;;;5034441;28;20124;-56
2022/05/02 13:34:05;;;;;;;6.85;3.95;;;27.30;32.80;;;;;;5028583;28;20041;-57
2022/05/02 13:36:42;;;;;;;6.88;4.88;;;27.40;32.20;;;;;;5032224;28;20503;-56
2022/05/02 13:39:19;;;;;;;11.50;7.60;;;27.00;30.90;;;;;;5042021;28;20043;-56
2022/05/02 13:42:01;;;;;;;7.35;5.53;;;27.20;32.80;;;;;;5001917;28;20048;-56
2022/05/02 13:44:52;;;;;;;8.27;5.05;;;26.40;31.20;;;;;;5040712;28;20056;-56
2022/05/02 13:47:22;;;;;;;8.98;4.88;;;26.30;31.90;;;;;;5035536;28;20114;-56